createdAt,value
2022-12-09T00:01:52.015Z,50.98
2022-12-09T00:04:41.618Z,50.98
2022-12-09T00:07:31.388Z,50.98
2022-12-09T00:10:21.383Z,50.98
2022-12-09T00:13:10.853Z,50.99
2022-12-09T00:16:00.742Z,50.98
2022-12-09T00:18:50.572Z,50.98
2022-12-09T00:21:40.817Z,50.98
2022-12-09T00:24:30.317Z,50.97
2022-12-09T00:27:19.953Z,50.97
2022-12-09T00:30:11.831Z,50.97
2022-12-09T00:33:01.605Z,50.97
2022-12-09T00:35:51.099Z,50.97
2022-12-09T00:38:40.877Z,50.98
2022-12-09T00:41:30.991Z,50.97
2022-12-09T00:44:20.644Z,50.97
2022-12-09T00:47:10.280Z,50.97
2022-12-09T00:50:00.268Z,50.98
2022-12-09T00:52:50.542Z,50.97
2022-12-09T00:55:40.409Z,50.96
2022-12-09T00:58:30.208Z,50.96
2022-12-09T01:01:19.752Z,50.95
2022-12-09T01:04:09.707Z,50.95
2022-12-09T01:06:59.557Z,50.95
2022-12-09T01:09:50.491Z,50.95
2022-12-09T01:12:39.948Z,50.95
2022-12-09T01:15:29.978Z,50.95
2022-12-09T01:18:19.661Z,50.94
2022-12-09T01:21:09.223Z,50.94
2022-12-09T01:23:58.797Z,50.93
2022-12-09T01:26:48.383Z,50.93
2022-12-09T01:29:38.320Z,50.93
2022-12-09T01:32:28.338Z,50.91
2022-12-09T01:35:18.849Z,50.92
2022-12-09T01:38:08.548Z,50.92
2022-12-09T01:40:57.996Z,50.92
2022-12-09T01:44:10.632Z,50.91
2022-12-09T01:47:01.115Z,50.91
2022-12-09T01:49:50.647Z,50.91
2022-12-09T01:52:41.000Z,50.90
2022-12-09T01:55:30.860Z,50.90
2022-12-09T01:58:20.839Z,50.89
2022-12-09T02:01:10.465Z,50.89
2022-12-09T02:04:00.260Z,50.89
2022-12-09T02:06:50.187Z,50.89
2022-12-09T02:09:40.831Z,50.89
2022-12-09T02:12:36.466Z,50.89
2022-12-09T02:15:28.559Z,50.88
2022-12-09T02:18:21.298Z,50.89
2022-12-09T02:21:13.093Z,50.88
2022-12-09T02:24:08.131Z,50.88
2022-12-09T02:27:01.032Z,50.87
2022-12-09T02:29:59.153Z,50.87
2022-12-09T02:32:58.515Z,50.88
2022-12-09T02:35:50.510Z,50.87
2022-12-09T02:38:41.124Z,50.88
2022-12-09T02:41:31.102Z,50.87
2022-12-09T02:44:21.751Z,50.87
2022-12-09T02:47:11.907Z,50.86
2022-12-09T02:50:03.777Z,50.88
2022-12-09T02:52:54.038Z,50.87
2022-12-09T02:55:45.004Z,50.88
2022-12-09T02:58:34.647Z,50.86
2022-12-09T03:01:34.492Z,50.86
2022-12-09T03:04:24.842Z,50.86
2022-12-09T03:07:20.124Z,50.86
2022-12-09T03:10:12.785Z,50.86
2022-12-09T03:13:04.609Z,50.85
2022-12-09T03:15:58.253Z,50.84
2022-12-09T03:18:49.041Z,50.85
2022-12-09T03:21:40.987Z,50.84
2022-12-09T03:24:32.729Z,50.83
2022-12-09T03:27:25.469Z,50.83
2022-12-09T03:30:16.426Z,50.82
2022-12-09T03:33:06.842Z,50.81
2022-12-09T03:35:57.606Z,50.82
2022-12-09T03:38:47.275Z,50.82
2022-12-09T03:41:37.298Z,50.81
2022-12-09T03:44:29.962Z,50.81
2022-12-09T03:47:19.607Z,50.79
2022-12-09T03:50:10.991Z,50.80
2022-12-09T03:53:02.926Z,50.80
2022-12-09T03:55:55.078Z,50.79
2022-12-09T03:58:44.649Z,50.79
2022-12-09T04:01:34.472Z,50.78
2022-12-09T04:04:24.505Z,50.77
2022-12-09T04:07:14.381Z,50.77
2022-12-09T04:10:05.043Z,50.75
2022-12-09T04:12:55.047Z,50.76
2022-12-09T04:15:44.925Z,50.75
2022-12-09T04:18:35.194Z,50.75
2022-12-09T04:21:24.931Z,50.74
2022-12-09T04:24:14.898Z,50.74
2022-12-09T04:27:04.514Z,50.73
2022-12-09T04:29:53.950Z,50.74
2022-12-09T04:32:44.136Z,50.72
2022-12-09T04:35:34.140Z,50.71
2022-12-09T04:38:24.038Z,50.72
2022-12-09T04:41:14.582Z,50.73
2022-12-09T04:44:04.292Z,50.71
2022-12-09T04:46:54.183Z,50.71
2022-12-09T04:49:44.117Z,50.72
2022-12-09T04:52:34.511Z,50.71
2022-12-09T04:55:23.984Z,50.71
2022-12-09T04:58:13.689Z,50.71
2022-12-09T05:01:07.484Z,50.70
2022-12-09T05:03:57.198Z,50.70
2022-12-09T05:06:47.248Z,50.70
2022-12-09T05:09:37.192Z,50.69
2022-12-09T05:12:27.052Z,50.69
2022-12-09T05:15:16.881Z,50.69
2022-12-09T05:18:06.798Z,50.68
2022-12-09T05:20:56.696Z,50.69
2022-12-09T05:23:46.583Z,50.68
2022-12-09T05:26:36.326Z,50.67
2022-12-09T05:29:26.505Z,50.67
2022-12-09T05:32:16.093Z,50.67
2022-12-09T05:35:07.073Z,50.68
2022-12-09T05:37:56.790Z,50.67
2022-12-09T05:40:46.599Z,50.68
2022-12-09T05:43:36.855Z,50.67
2022-12-09T05:46:26.798Z,50.67
2022-12-09T05:49:16.836Z,50.67
2022-12-09T05:52:07.344Z,50.68
2022-12-09T05:54:57.475Z,50.68
2022-12-09T05:57:47.653Z,50.67
2022-12-09T06:00:37.618Z,50.68
2022-12-09T06:03:27.561Z,50.69
2022-12-09T06:06:18.822Z,50.69
2022-12-09T06:09:11.281Z,50.68
2022-12-09T06:12:01.283Z,50.69
2022-12-09T06:14:51.017Z,50.68
2022-12-09T06:17:40.970Z,50.67
2022-12-09T06:20:30.732Z,50.67
2022-12-09T06:23:20.285Z,50.66
2022-12-09T06:26:16.023Z,50.65
2022-12-09T06:29:05.993Z,50.66
2022-12-09T06:31:55.721Z,50.65
2022-12-09T06:34:45.909Z,50.65
2022-12-09T06:37:36.767Z,50.64
2022-12-09T06:40:26.575Z,50.63
2022-12-09T06:43:16.283Z,50.63
2022-12-09T06:46:12.075Z,50.63
2022-12-09T06:49:02.031Z,50.63
2022-12-09T06:51:52.687Z,50.64
2022-12-09T06:54:42.564Z,50.65
2022-12-09T06:57:32.892Z,50.63
2022-12-09T07:00:23.401Z,50.63
2022-12-09T07:03:13.808Z,50.62
2022-12-09T07:06:04.148Z,50.62
2022-12-09T07:08:54.891Z,50.64
2022-12-09T07:11:45.632Z,50.65
2022-12-09T07:14:36.202Z,50.66
2022-12-09T07:17:26.404Z,50.65
2022-12-09T07:20:17.145Z,50.67
2022-12-09T07:23:07.051Z,50.67
2022-12-09T07:25:57.868Z,50.68
2022-12-09T07:28:50.027Z,50.69
2022-12-09T07:31:39.932Z,50.66
2022-12-09T07:34:30.862Z,50.50
2022-12-09T07:37:20.659Z,50.30
2022-12-09T07:40:11.214Z,50.24
2022-12-09T07:43:00.885Z,50.21
2022-12-09T07:45:50.741Z,50.22
2022-12-09T07:48:40.779Z,50.25
2022-12-09T07:51:30.852Z,50.27
2022-12-09T07:54:20.698Z,50.30
2022-12-09T07:57:10.794Z,50.33
2022-12-09T08:00:00.774Z,50.36
2022-12-09T08:02:50.422Z,50.39
2022-12-09T08:05:47.921Z,50.41
2022-12-09T08:08:37.744Z,50.41
2022-12-09T08:11:29.279Z,50.38
2022-12-09T08:14:19.303Z,50.36
2022-12-09T08:17:09.633Z,50.36
2022-12-09T08:19:59.697Z,50.36
2022-12-09T08:22:49.352Z,50.36
2022-12-09T08:25:39.484Z,50.34
2022-12-09T08:28:29.490Z,50.33
2022-12-09T08:31:21.293Z,50.31
2022-12-09T08:34:12.227Z,50.31
2022-12-09T08:37:02.555Z,50.32
2022-12-09T08:39:52.747Z,50.32
2022-12-09T08:42:42.494Z,50.34
2022-12-09T08:45:34.943Z,50.37
2022-12-09T08:48:25.568Z,50.37
2022-12-09T08:51:15.782Z,50.35
2022-12-09T08:54:06.036Z,50.33
2022-12-09T08:56:57.000Z,50.33
2022-12-09T08:59:47.326Z,50.32
2022-12-09T09:02:37.412Z,50.30
2022-12-09T09:05:27.913Z,50.32
2022-12-09T09:08:17.778Z,50.31
2022-12-09T09:11:10.417Z,50.31
2022-12-09T09:14:02.257Z,50.30
2022-12-09T09:16:52.115Z,50.30
2022-12-09T09:19:42.551Z,50.29
2022-12-09T09:22:32.653Z,50.29
2022-12-09T09:25:22.423Z,50.28
2022-12-09T09:28:12.397Z,50.27
2022-12-09T09:31:02.619Z,50.24
2022-12-09T09:33:53.018Z,50.25
2022-12-09T09:36:42.901Z,50.24
2022-12-09T09:39:32.894Z,50.24
2022-12-09T09:42:24.769Z,50.22
2022-12-09T09:45:16.082Z,50.22
2022-12-09T09:48:06.554Z,50.21
2022-12-09T09:50:59.310Z,50.19
2022-12-09T09:53:50.509Z,50.18
2022-12-09T09:56:45.146Z,50.18
2022-12-09T09:59:40.085Z,50.16
2022-12-09T10:02:42.921Z,50.15
2022-12-09T10:05:34.697Z,50.14
2022-12-09T10:08:32.629Z,50.13
2022-12-09T10:11:25.700Z,50.12
2022-12-09T10:14:17.398Z,50.12
2022-12-09T10:17:18.875Z,50.13
2022-12-09T10:20:12.586Z,50.11
2022-12-09T10:23:05.071Z,50.11
2022-12-09T10:25:57.374Z,50.10
2022-12-09T10:28:48.390Z,50.11
2022-12-09T10:31:38.258Z,50.10
2022-12-09T10:34:28.415Z,50.11
2022-12-09T10:37:25.072Z,50.09
2022-12-09T10:40:30.346Z,50.08
2022-12-09T10:43:38.361Z,50.09
2022-12-09T10:46:28.463Z,50.09
2022-12-09T10:49:21.225Z,50.08
2022-12-09T10:52:11.380Z,50.07
2022-12-09T10:55:01.183Z,50.06
2022-12-09T10:57:50.780Z,50.05
2022-12-09T11:00:40.362Z,50.05
2022-12-09T11:03:32.453Z,50.03
2022-12-09T11:06:25.021Z,50.03
2022-12-09T11:09:22.378Z,50.02
2022-12-09T11:12:19.363Z,50.00
2022-12-09T11:15:25.589Z,49.99
2022-12-09T11:18:20.106Z,49.98
2022-12-09T11:21:31.820Z,49.99
2022-12-09T11:24:24.001Z,49.98
2022-12-09T11:27:28.220Z,49.98
2022-12-09T11:30:20.041Z,49.98
2022-12-09T11:33:23.576Z,49.96
2022-12-09T11:36:27.523Z,49.95
2022-12-09T11:39:25.561Z,49.93
2022-12-09T11:42:18.178Z,49.92
2022-12-09T11:45:17.727Z,49.95
2022-12-09T11:48:31.889Z,49.95
2022-12-09T11:51:22.463Z,50.01
2022-12-09T11:54:15.123Z,50.07
2022-12-09T11:57:05.067Z,50.13
2022-12-09T11:59:58.094Z,50.17
2022-12-09T12:02:49.011Z,50.22
2022-12-09T12:05:41.710Z,50.26
2022-12-09T12:08:34.258Z,50.30
2022-12-09T12:11:27.970Z,50.32
2022-12-09T12:14:19.122Z,50.38
2022-12-09T12:17:13.708Z,50.44
2022-12-09T12:20:04.029Z,50.51
2022-12-09T12:23:09.504Z,50.58
2022-12-09T12:26:03.815Z,50.65
2022-12-09T12:29:07.505Z,50.73
2022-12-09T12:32:37.498Z,50.79
2022-12-09T12:35:44.987Z,50.85
2022-12-09T12:38:49.008Z,50.89
2022-12-09T12:41:52.250Z,50.92
2022-12-09T12:45:07.716Z,50.93
2022-12-09T12:48:00.668Z,50.95
2022-12-09T12:50:59.399Z,50.95
2022-12-09T12:53:51.950Z,50.96
2022-12-09T12:56:47.168Z,50.96
2022-12-09T12:59:39.726Z,50.95
2022-12-09T13:02:36.162Z,50.84
2022-12-09T13:05:26.788Z,50.74
2022-12-09T13:08:18.238Z,50.72
2022-12-09T13:11:11.115Z,50.74
2022-12-09T13:14:01.999Z,50.76
2022-12-09T13:16:51.642Z,50.81
2022-12-09T13:19:42.860Z,50.84
2022-12-09T13:22:36.014Z,50.84
2022-12-09T13:25:28.667Z,50.85
2022-12-09T13:28:20.963Z,50.88
2022-12-09T13:31:10.650Z,50.92
2022-12-09T13:34:12.864Z,50.96
2022-12-09T13:37:02.540Z,51.00
2022-12-09T13:39:57.699Z,51.03
2022-12-09T13:42:53.127Z,51.07
2022-12-09T13:45:51.371Z,51.09
2022-12-09T13:48:50.559Z,51.06
2022-12-09T13:51:48.145Z,51.07
2022-12-09T13:54:39.161Z,51.08
2022-12-09T13:57:37.299Z,51.11
2022-12-09T14:00:28.341Z,51.14
2022-12-09T14:03:22.051Z,51.17
2022-12-09T14:06:20.324Z,51.15
2022-12-09T14:09:35.389Z,51.20
2022-12-09T14:13:02.130Z,51.25
2022-12-09T14:16:33.007Z,51.26
2022-12-09T14:19:51.729Z,51.28
2022-12-09T14:22:41.308Z,51.25
2022-12-09T14:25:57.928Z,51.21
2022-12-09T14:28:56.147Z,51.19
2022-12-09T14:31:59.440Z,51.17
2022-12-09T14:35:00.341Z,51.15
2022-12-09T14:38:00.397Z,51.14
2022-12-09T14:40:59.247Z,51.13
2022-12-09T14:44:12.974Z,51.11
2022-12-09T14:47:29.604Z,51.13
2022-12-09T14:50:19.873Z,51.11
2022-12-09T14:53:18.584Z,51.10
2022-12-09T14:56:08.499Z,51.08
2022-12-09T14:59:00.708Z,51.05
2022-12-09T15:01:52.705Z,51.03
2022-12-09T15:04:44.038Z,51.00
2022-12-09T15:07:34.352Z,50.99
2022-12-09T15:10:30.938Z,50.98
2022-12-09T15:13:22.211Z,50.97
2022-12-09T15:16:13.539Z,50.96
2022-12-09T15:19:03.280Z,50.94
2022-12-09T15:21:53.115Z,50.93
2022-12-09T15:24:50.664Z,50.92
2022-12-09T15:27:40.854Z,50.89
2022-12-09T15:30:32.767Z,50.87
2022-12-09T15:33:22.369Z,50.85
2022-12-09T15:36:13.683Z,50.86
2022-12-09T15:39:05.054Z,50.90
2022-12-09T15:42:06.908Z,50.96
2022-12-09T15:45:00.036Z,50.99
2022-12-09T15:47:51.483Z,51.05
2022-12-09T15:50:42.442Z,51.14
2022-12-09T15:53:33.452Z,51.21
2022-12-09T15:56:25.067Z,51.26
2022-12-09T15:59:15.991Z,51.33
2022-12-09T16:02:05.637Z,51.38
2022-12-09T16:04:56.843Z,51.42
2022-12-09T16:07:54.463Z,51.47
2022-12-09T16:10:48.152Z,51.51
2022-12-09T16:13:37.834Z,51.55
2022-12-09T16:16:30.173Z,51.57
2022-12-09T16:19:34.265Z,51.60
2022-12-09T16:22:25.295Z,51.65
2022-12-09T16:25:20.626Z,51.69
2022-12-09T16:28:20.529Z,51.75
2022-12-09T16:31:17.727Z,51.80
2022-12-09T16:34:17.595Z,51.82
2022-12-09T16:37:23.366Z,51.85
2022-12-09T16:40:47.438Z,51.88
2022-12-09T16:43:37.112Z,51.89
2022-12-09T16:46:39.213Z,51.92
2022-12-09T16:49:29.530Z,51.94
2022-12-09T16:52:21.578Z,51.96
2022-12-09T16:55:18.481Z,51.99
2022-12-09T16:58:10.645Z,52.02
2022-12-09T17:01:00.489Z,52.03
2022-12-09T17:03:51.832Z,52.04
2022-12-09T17:06:43.674Z,52.02
2022-12-09T17:09:33.430Z,52.01
2022-12-09T17:12:23.446Z,51.99
2022-12-09T17:15:16.329Z,51.97
2022-12-09T17:18:06.288Z,51.95
2022-12-09T17:21:00.865Z,51.93
2022-12-09T17:23:50.774Z,51.90
2022-12-09T17:26:40.744Z,51.88
2022-12-09T17:29:30.337Z,51.87
2022-12-09T17:32:19.876Z,51.85
2022-12-09T17:35:12.834Z,51.84
2022-12-09T17:38:02.783Z,51.81
2022-12-09T17:40:52.336Z,51.80
2022-12-09T17:43:42.475Z,51.77
2022-12-09T17:46:32.066Z,51.76
2022-12-09T17:49:21.682Z,51.73
2022-12-09T17:52:11.176Z,51.72
2022-12-09T17:55:00.677Z,51.70
2022-12-09T17:57:54.141Z,51.68
2022-12-09T18:00:44.396Z,51.66
2022-12-09T18:03:54.878Z,51.63
2022-12-09T18:06:44.356Z,51.61
2022-12-09T18:09:33.981Z,51.60
2022-12-09T18:12:23.885Z,51.58
2022-12-09T18:15:13.509Z,51.56
2022-12-09T18:18:04.796Z,51.54
2022-12-09T18:20:54.340Z,51.52
2022-12-09T18:23:44.034Z,51.49
2022-12-09T18:26:39.760Z,51.46
2022-12-09T18:29:31.195Z,51.43
2022-12-09T18:32:21.093Z,51.41
2022-12-09T18:35:11.129Z,51.38
2022-12-09T18:38:09.549Z,51.36
2022-12-09T18:41:02.273Z,51.33
2022-12-09T18:43:52.939Z,51.32
2022-12-09T18:46:45.321Z,51.29
2022-12-09T18:49:36.510Z,51.26
2022-12-09T18:52:26.148Z,51.24
2022-12-09T18:55:15.952Z,51.23
2022-12-09T18:58:05.592Z,51.20
2022-12-09T19:00:55.289Z,51.18
2022-12-09T19:03:44.951Z,51.16
2022-12-09T19:06:35.512Z,51.15
2022-12-09T19:09:26.115Z,51.13
2022-12-09T19:12:46.408Z,51.12
2022-12-09T19:15:25.385Z,51.09
2022-12-09T19:18:15.120Z,51.09
2022-12-09T19:21:12.073Z,51.09
2022-12-09T19:24:01.677Z,51.10
2022-12-09T19:26:52.667Z,51.08
2022-12-09T19:29:42.350Z,51.07
2022-12-09T19:32:54.677Z,51.05
2022-12-09T19:35:49.504Z,51.05
2022-12-09T19:38:39.226Z,51.05
2022-12-09T19:41:29.220Z,51.05
2022-12-09T19:44:37.218Z,51.05
2022-12-09T19:47:29.136Z,51.06
2022-12-09T19:50:19.374Z,51.05
2022-12-09T19:53:09.000Z,51.05
2022-12-09T19:56:01.536Z,51.08
2022-12-09T19:58:51.325Z,51.12
2022-12-09T20:01:42.047Z,51.15
2022-12-09T20:04:50.362Z,51.19
2022-12-09T20:07:41.401Z,51.25
2022-12-09T20:10:31.489Z,51.28
2022-12-09T20:13:21.196Z,51.30
2022-12-09T20:16:11.847Z,51.34
2022-12-09T20:19:01.895Z,51.37
2022-12-09T20:21:51.619Z,51.39
2022-12-09T20:24:42.572Z,51.42
2022-12-09T20:27:32.308Z,51.44
2022-12-09T20:30:22.554Z,51.45
2022-12-09T20:33:12.123Z,51.44
2022-12-09T20:36:06.943Z,51.44
2022-12-09T20:38:58.051Z,51.43
2022-12-09T20:41:47.886Z,51.41
2022-12-09T20:44:37.942Z,51.39
2022-12-09T20:47:27.531Z,51.37
2022-12-09T20:50:17.423Z,51.34
2022-12-09T20:53:07.152Z,51.34
2022-12-09T20:55:58.883Z,51.31
2022-12-09T20:58:50.503Z,51.30
2022-12-09T21:01:40.554Z,51.29
2022-12-09T21:04:30.375Z,51.29
2022-12-09T21:07:20.956Z,51.29
2022-12-09T21:10:11.396Z,51.27
2022-12-09T21:13:01.133Z,51.24
2022-12-09T21:15:50.882Z,51.22
2022-12-09T21:18:40.586Z,51.20
2022-12-09T21:21:32.489Z,51.20
2022-12-09T21:24:23.518Z,51.21
2022-12-09T21:27:13.199Z,51.20
2022-12-09T21:30:02.875Z,51.20
2022-12-09T21:32:52.704Z,51.19
2022-12-09T21:35:44.696Z,51.18
2022-12-09T21:38:34.395Z,51.18
2022-12-09T21:41:25.917Z,51.19
2022-12-09T21:44:17.450Z,51.20
2022-12-09T21:47:32.201Z,51.19
2022-12-09T21:50:27.161Z,51.20
2022-12-09T21:53:20.492Z,51.19
2022-12-09T21:56:16.024Z,51.19
2022-12-09T21:59:11.395Z,51.18
2022-12-09T22:02:05.428Z,51.17
2022-12-09T22:05:03.316Z,51.17
2022-12-09T22:07:58.653Z,51.17
2022-12-09T22:10:52.166Z,51.15
2022-12-09T22:13:45.939Z,51.16
2022-12-09T22:16:40.002Z,51.16
2022-12-09T22:19:33.803Z,51.15
2022-12-09T22:22:27.757Z,51.14
2022-12-09T22:25:21.077Z,51.14
2022-12-09T22:28:14.466Z,51.12
2022-12-09T22:31:13.879Z,51.13
2022-12-09T22:34:08.667Z,51.13
2022-12-09T22:37:15.094Z,51.12
2022-12-09T22:40:16.760Z,51.14
2022-12-09T22:43:10.897Z,51.12
2022-12-09T22:46:07.359Z,51.11
2022-12-09T22:49:01.583Z,51.09
2022-12-09T22:51:59.148Z,51.05
2022-12-09T22:54:53.725Z,51.02
2022-12-09T22:57:47.039Z,50.99
2022-12-09T23:00:40.301Z,50.96
2022-12-09T23:03:33.071Z,50.93
2022-12-09T23:06:26.052Z,50.89
2022-12-09T23:09:20.815Z,50.87
2022-12-09T23:12:14.332Z,50.86
2022-12-09T23:15:08.527Z,50.86
2022-12-09T23:18:01.315Z,50.85
2022-12-09T23:20:54.510Z,50.86
2022-12-09T23:23:47.311Z,50.86
2022-12-09T23:26:40.765Z,50.85
2022-12-09T23:29:33.780Z,50.84
2022-12-09T23:32:26.577Z,50.82
2022-12-09T23:35:22.196Z,50.80
2022-12-09T23:38:15.357Z,50.79
2022-12-09T23:41:08.679Z,50.76
2022-12-09T23:44:01.419Z,50.76
2022-12-09T23:46:54.238Z,50.76
2022-12-09T23:49:47.040Z,50.75
2022-12-09T23:52:40.291Z,50.74
2022-12-09T23:55:33.126Z,50.71
2022-12-09T23:58:25.955Z,50.71
